sensor_id;sensor_type;location;lat;lon;timestamp;P1;durP1;ratioP1;P2;durP2;ratioP2
20393;SDS011;10356;50.544;9.642;2022-09-13T00:01:23;8.00;;;7.05;;
20393;SDS011;10356;50.544;9.642;2022-09-13T00:03:51;9.60;;;7.63;;
20393;SDS011;10356;50.544;9.642;2022-09-13T00:06:18;11.50;;;7.45;;
20393;SDS011;10356;50.544;9.642;2022-09-13T00:08:45;11.50;;;8.70;;
20393;SDS011;10356;50.544;9.642;2022-09-13T00:11:14;10.75;;;7.80;;
20393;SDS011;10356;50.544;9.642;2022-09-13T00:13:41;8.45;;;7.28;;
20393;SDS011;10356;50.544;9.642;2022-09-13T00:16:09;8.73;;;7.65;;
20393;SDS011;10356;50.544;9.642;2022-09-13T00:18:37;8.65;;;7.47;;
20393;SDS011;10356;50.544;9.642;2022-09-13T00:21:05;9.57;;;7.43;;
20393;SDS011;10356;50.544;9.642;2022-09-13T00:23:34;9.50;;;7.47;;
20393;SDS011;10356;50.544;9.642;2022-09-13T00:26:02;10.38;;;7.97;;
20393;SDS011;10356;50.544;9.642;2022-09-13T00:28:32;9.50;;;7.32;;
20393;SDS011;10356;50.544;9.642;2022-09-13T00:31:00;8.20;;;7.15;;
20393;SDS011;10356;50.544;9.642;2022-09-13T00:33:26;9.20;;;7.50;;
20393;SDS011;10356;50.544;9.642;2022-09-13T00:35:53;8.43;;;7.25;;
20393;SDS011;10356;50.544;9.642;2022-09-13T00:38:21;9.73;;;6.88;;
20393;SDS011;10356;50.544;9.642;2022-09-13T00:40:47;9.27;;;6.80;;
20393;SDS011;10356;50.544;9.642;2022-09-13T00:43:15;10.25;;;6.93;;
20393;SDS011;10356;50.544;9.642;2022-09-13T00:45:43;9.40;;;7.00;;
20393;SDS011;10356;50.544;9.642;2022-09-13T00:48:13;10.63;;;7.55;;
20393;SDS011;10356;50.544;9.642;2022-09-13T00:50:46;10.77;;;8.07;;
20393;SDS011;10356;50.544;9.642;2022-09-13T00:53:16;11.70;;;8.35;;
20393;SDS011;10356;50.544;9.642;2022-09-13T00:55:50;11.95;;;7.47;;
20393;SDS011;10356;50.544;9.642;2022-09-13T00:58:21;11.68;;;7.45;;
20393;SDS011;10356;50.544;9.642;2022-09-13T01:00:51;10.02;;;7.20;;
20393;SDS011;10356;50.544;9.642;2022-09-13T01:03:20;10.63;;;7.28;;
20393;SDS011;10356;50.544;9.642;2022-09-13T01:05:50;11.45;;;7.50;;
20393;SDS011;10356;50.544;9.642;2022-09-13T01:08:21;9.27;;;7.65;;
20393;SDS011;10356;50.544;9.642;2022-09-13T01:10:48;9.00;;;7.53;;
20393;SDS011;10356;50.544;9.642;2022-09-13T01:13:17;10.07;;;8.07;;
20393;SDS011;10356;50.544;9.642;2022-09-13T01:15:46;11.63;;;7.68;;
20393;SDS011;10356;50.544;9.642;2022-09-13T01:18:12;8.43;;;7.22;;
20393;SDS011;10356;50.544;9.642;2022-09-13T01:20:44;9.48;;;7.45;;
20393;SDS011;10356;50.544;9.642;2022-09-13T01:23:33;10.05;;;8.52;;
20393;SDS011;10356;50.544;9.642;2022-09-13T01:29:38;9.45;;;7.93;;
20393;SDS011;10356;50.544;9.642;2022-09-13T01:32:28;9.85;;;7.25;;
20393;SDS011;10356;50.544;9.642;2022-09-13T01:35:07;9.82;;;7.40;;
20393;SDS011;10356;50.544;9.642;2022-09-13T01:37:48;8.73;;;7.50;;
20393;SDS011;10356;50.544;9.642;2022-09-13T01:40:23;9.18;;;7.32;;
20393;SDS011;10356;50.544;9.642;2022-09-13T01:43:12;8.77;;;7.85;;
20393;SDS011;10356;50.544;9.642;2022-09-13T01:45:52;11.95;;;7.75;;
20393;SDS011;10356;50.544;9.642;2022-09-13T01:48:30;10.98;;;8.27;;
20393;SDS011;10356;50.544;9.642;2022-09-13T01:51:03;10.15;;;8.30;;
20393;SDS011;10356;50.544;9.642;2022-09-13T01:53:33;11.68;;;8.40;;
20393;SDS011;10356;50.544;9.642;2022-09-13T01:56:09;11.40;;;8.48;;
20393;SDS011;10356;50.544;9.642;2022-09-13T01:58:42;11.02;;;8.00;;
20393;SDS011;10356;50.544;9.642;2022-09-13T02:01:16;17.85;;;9.55;;
20393;SDS011;10356;50.544;9.642;2022-09-13T02:03:46;14.00;;;9.32;;
20393;SDS011;10356;50.544;9.642;2022-09-13T02:06:18;12.68;;;8.20;;
20393;SDS011;10356;50.544;9.642;2022-09-13T02:08:48;13.05;;;8.35;;
20393;SDS011;10356;50.544;9.642;2022-09-13T02:11:19;9.65;;;7.55;;
20393;SDS011;10356;50.544;9.642;2022-09-13T02:13:48;10.00;;;7.47;;
20393;SDS011;10356;50.544;9.642;2022-09-13T02:16:18;11.63;;;7.95;;
20393;SDS011;10356;50.544;9.642;2022-09-13T02:18:53;11.77;;;7.65;;
20393;SDS011;10356;50.544;9.642;2022-09-13T02:21:24;10.02;;;7.63;;
20393;SDS011;10356;50.544;9.642;2022-09-13T02:23:54;11.63;;;8.25;;
20393;SDS011;10356;50.544;9.642;2022-09-13T02:26:24;12.57;;;8.50;;
20393;SDS011;10356;50.544;9.642;2022-09-13T02:28:53;11.02;;;8.32;;
20393;SDS011;10356;50.544;9.642;2022-09-13T02:31:25;11.38;;;8.18;;
20393;SDS011;10356;50.544;9.642;2022-09-13T02:33:56;13.80;;;9.07;;
20393;SDS011;10356;50.544;9.642;2022-09-13T02:36:28;11.48;;;9.07;;
20393;SDS011;10356;50.544;9.642;2022-09-13T02:38:59;12.70;;;9.07;;
20393;SDS011;10356;50.544;9.642;2022-09-13T02:41:29;10.30;;;8.43;;
20393;SDS011;10356;50.544;9.642;2022-09-13T02:44:01;13.88;;;9.20;;
20393;SDS011;10356;50.544;9.642;2022-09-13T02:46:42;11.48;;;8.65;;
20393;SDS011;10356;50.544;9.642;2022-09-13T02:49:21;10.57;;;8.48;;
20393;SDS011;10356;50.544;9.642;2022-09-13T02:51:54;12.00;;;9.02;;
20393;SDS011;10356;50.544;9.642;2022-09-13T02:54:24;10.80;;;9.20;;
20393;SDS011;10356;50.544;9.642;2022-09-13T02:56:56;13.35;;;9.77;;
20393;SDS011;10356;50.544;9.642;2022-09-13T02:59:28;12.10;;;8.63;;
20393;SDS011;10356;50.544;9.642;2022-09-13T03:01:57;11.65;;;8.45;;
20393;SDS011;10356;50.544;9.642;2022-09-13T03:04:28;13.13;;;8.70;;
20393;SDS011;10356;50.544;9.642;2022-09-13T03:06:55;12.65;;;9.07;;
20393;SDS011;10356;50.544;9.642;2022-09-13T03:09:21;11.25;;;7.55;;
20393;SDS011;10356;50.544;9.642;2022-09-13T03:12:04;11.07;;;9.18;;
20393;SDS011;10356;50.544;9.642;2022-09-13T03:14:48;10.52;;;8.20;;
20393;SDS011;10356;50.544;9.642;2022-09-13T03:17:29;12.50;;;9.32;;
20393;SDS011;10356;50.544;9.642;2022-09-13T03:20:06;12.63;;;8.80;;
20393;SDS011;10356;50.544;9.642;2022-09-13T03:22:47;10.98;;;8.73;;
20393;SDS011;10356;50.544;9.642;2022-09-13T03:25:26;12.75;;;9.35;;
20393;SDS011;10356;50.544;9.642;2022-09-13T03:28:00;11.90;;;9.40;;
20393;SDS011;10356;50.544;9.642;2022-09-13T03:30:34;12.65;;;9.27;;
20393;SDS011;10356;50.544;9.642;2022-09-13T03:33:09;14.30;;;9.52;;
20393;SDS011;10356;50.544;9.642;2022-09-13T03:35:43;12.82;;;8.82;;
20393;SDS011;10356;50.544;9.642;2022-09-13T03:38:18;11.02;;;8.68;;
20393;SDS011;10356;50.544;9.642;2022-09-13T03:40:51;13.93;;;8.32;;
20393;SDS011;10356;50.544;9.642;2022-09-13T03:43:23;11.65;;;8.15;;
20393;SDS011;10356;50.544;9.642;2022-09-13T03:45:54;12.82;;;8.55;;
20393;SDS011;10356;50.544;9.642;2022-09-13T03:48:26;12.45;;;9.00;;
20393;SDS011;10356;50.544;9.642;2022-09-13T03:50:54;12.23;;;9.02;;
20393;SDS011;10356;50.544;9.642;2022-09-13T03:53:22;10.43;;;8.50;;
20393;SDS011;10356;50.544;9.642;2022-09-13T03:55:51;10.50;;;8.15;;
20393;SDS011;10356;50.544;9.642;2022-09-13T03:58:19;11.73;;;8.70;;
20393;SDS011;10356;50.544;9.642;2022-09-13T04:00:46;11.77;;;8.77;;
20393;SDS011;10356;50.544;9.642;2022-09-13T04:03:13;14.38;;;8.57;;
20393;SDS011;10356;50.544;9.642;2022-09-13T04:05:41;11.25;;;8.18;;
20393;SDS011;10356;50.544;9.642;2022-09-13T04:08:07;12.07;;;8.82;;
20393;SDS011;10356;50.544;9.642;2022-09-13T04:10:34;9.95;;;8.35;;
20393;SDS011;10356;50.544;9.642;2022-09-13T04:13:02;15.50;;;8.00;;
20393;SDS011;10356;50.544;9.642;2022-09-13T04:15:29;10.85;;;8.18;;
20393;SDS011;10356;50.544;9.642;2022-09-13T04:17:56;11.02;;;8.45;;
20393;SDS011;10356;50.544;9.642;2022-09-13T04:20:23;14.73;;;9.95;;
20393;SDS011;10356;50.544;9.642;2022-09-13T04:22:51;12.15;;;9.13;;
20393;SDS011;10356;50.544;9.642;2022-09-13T04:25:18;12.50;;;8.90;;
20393;SDS011;10356;50.544;9.642;2022-09-13T04:27:46;10.52;;;8.38;;
20393;SDS011;10356;50.544;9.642;2022-09-13T04:30:12;11.85;;;9.02;;
20393;SDS011;10356;50.544;9.642;2022-09-13T04:32:40;13.73;;;9.98;;
20393;SDS011;10356;50.544;9.642;2022-09-13T04:35:08;11.98;;;9.45;;
20393;SDS011;10356;50.544;9.642;2022-09-13T04:37:34;12.50;;;9.50;;
20393;SDS011;10356;50.544;9.642;2022-09-13T04:40:03;15.25;;;10.27;;
20393;SDS011;10356;50.544;9.642;2022-09-13T04:42:30;18.27;;;10.82;;
20393;SDS011;10356;50.544;9.642;2022-09-13T04:44:56;14.93;;;10.23;;
20393;SDS011;10356;50.544;9.642;2022-09-13T04:47:23;13.32;;;9.63;;
20393;SDS011;10356;50.544;9.642;2022-09-13T04:49:50;15.20;;;9.98;;
20393;SDS011;10356;50.544;9.642;2022-09-13T04:52:16;12.65;;;9.55;;
20393;SDS011;10356;50.544;9.642;2022-09-13T04:54:44;13.27;;;9.23;;
20393;SDS011;10356;50.544;9.642;2022-09-13T04:57:13;13.77;;;9.52;;
20393;SDS011;10356;50.544;9.642;2022-09-13T04:59:40;74.80;;;65.35;;
20393;SDS011;10356;50.544;9.642;2022-09-13T05:02:07;31.60;;;28.30;;
20393;SDS011;10356;50.544;9.642;2022-09-13T05:04:33;20.83;;;15.65;;
20393;SDS011;10356;50.544;9.642;2022-09-13T05:07:00;18.60;;;16.25;;
20393;SDS011;10356;50.544;9.642;2022-09-13T05:09:26;19.77;;;17.45;;
20393;SDS011;10356;50.544;9.642;2022-09-13T05:11:53;25.08;;;22.38;;
20393;SDS011;10356;50.544;9.642;2022-09-13T05:14:21;15.43;;;12.15;;
20393;SDS011;10356;50.544;9.642;2022-09-13T05:16:47;11.43;;;10.07;;
20393;SDS011;10356;50.544;9.642;2022-09-13T05:19:14;13.20;;;9.50;;
20393;SDS011;10356;50.544;9.642;2022-09-13T05:21:40;11.73;;;8.90;;
20393;SDS011;10356;50.544;9.642;2022-09-13T05:24:07;12.18;;;8.88;;
20393;SDS011;10356;50.544;9.642;2022-09-13T05:26:33;14.75;;;9.90;;
20393;SDS011;10356;50.544;9.642;2022-09-13T05:29:00;11.80;;;9.93;;
20393;SDS011;10356;50.544;9.642;2022-09-13T05:31:29;11.57;;;10.32;;
20393;SDS011;10356;50.544;9.642;2022-09-13T05:33:58;13.60;;;10.23;;
20393;SDS011;10356;50.544;9.642;2022-09-13T05:36:26;12.25;;;9.50;;
20393;SDS011;10356;50.544;9.642;2022-09-13T05:38:53;15.02;;;11.35;;
20393;SDS011;10356;50.544;9.642;2022-09-13T05:41:20;11.10;;;9.10;;
20393;SDS011;10356;50.544;9.642;2022-09-13T05:43:47;14.00;;;9.20;;
20393;SDS011;10356;50.544;9.642;2022-09-13T05:46:14;12.23;;;9.05;;
20393;SDS011;10356;50.544;9.642;2022-09-13T05:48:43;13.70;;;9.73;;
20393;SDS011;10356;50.544;9.642;2022-09-13T05:51:10;12.05;;;9.50;;
20393;SDS011;10356;50.544;9.642;2022-09-13T05:53:38;11.77;;;8.80;;
20393;SDS011;10356;50.544;9.642;2022-09-13T05:56:05;11.52;;;9.02;;
20393;SDS011;10356;50.544;9.642;2022-09-13T05:58:32;16.05;;;9.82;;
20393;SDS011;10356;50.544;9.642;2022-09-13T06:00:59;12.95;;;9.18;;
20393;SDS011;10356;50.544;9.642;2022-09-13T06:03:25;14.93;;;9.85;;
20393;SDS011;10356;50.544;9.642;2022-09-13T06:05:55;13.82;;;9.40;;
20393;SDS011;10356;50.544;9.642;2022-09-13T06:08:22;12.07;;;9.23;;
20393;SDS011;10356;50.544;9.642;2022-09-13T06:10:53;11.75;;;10.48;;
20393;SDS011;10356;50.544;9.642;2022-09-13T06:13:21;12.60;;;10.98;;
20393;SDS011;10356;50.544;9.642;2022-09-13T06:15:48;11.75;;;10.55;;
20393;SDS011;10356;50.544;9.642;2022-09-13T06:18:14;14.45;;;9.80;;
20393;SDS011;10356;50.544;9.642;2022-09-13T06:20:41;11.20;;;9.70;;
20393;SDS011;10356;50.544;9.642;2022-09-13T06:23:09;10.95;;;8.43;;
20393;SDS011;10356;50.544;9.642;2022-09-13T06:25:36;10.00;;;8.25;;
20393;SDS011;10356;50.544;9.642;2022-09-13T06:28:02;13.77;;;9.15;;
20393;SDS011;10356;50.544;9.642;2022-09-13T06:30:29;10.65;;;9.30;;
20393;SDS011;10356;50.544;9.642;2022-09-13T06:32:56;11.38;;;8.85;;
20393;SDS011;10356;50.544;9.642;2022-09-13T06:35:22;12.73;;;9.13;;
20393;SDS011;10356;50.544;9.642;2022-09-13T06:37:49;12.85;;;9.40;;
20393;SDS011;10356;50.544;9.642;2022-09-13T06:40:17;10.55;;;8.93;;
20393;SDS011;10356;50.544;9.642;2022-09-13T06:42:44;11.80;;;9.30;;
20393;SDS011;10356;50.544;9.642;2022-09-13T06:45:11;11.38;;;9.07;;
20393;SDS011;10356;50.544;9.642;2022-09-13T06:47:37;9.98;;;8.98;;
20393;SDS011;10356;50.544;9.642;2022-09-13T06:50:04;15.10;;;9.63;;
20393;SDS011;10356;50.544;9.642;2022-09-13T06:52:31;10.20;;;8.75;;
20393;SDS011;10356;50.544;9.642;2022-09-13T06:54:58;12.23;;;8.88;;
20393;SDS011;10356;50.544;9.642;2022-09-13T06:57:28;11.98;;;8.98;;
20393;SDS011;10356;50.544;9.642;2022-09-13T06:59:55;12.20;;;8.95;;
20393;SDS011;10356;50.544;9.642;2022-09-13T07:02:21;13.30;;;8.68;;
20393;SDS011;10356;50.544;9.642;2022-09-13T07:04:49;11.90;;;8.88;;
20393;SDS011;10356;50.544;9.642;2022-09-13T07:07:15;11.75;;;9.30;;
20393;SDS011;10356;50.544;9.642;2022-09-13T07:09:43;12.30;;;9.35;;
20393;SDS011;10356;50.544;9.642;2022-09-13T07:12:09;10.85;;;8.82;;
20393;SDS011;10356;50.544;9.642;2022-09-13T07:14:37;14.43;;;9.88;;
20393;SDS011;10356;50.544;9.642;2022-09-13T07:17:03;11.75;;;9.20;;
20393;SDS011;10356;50.544;9.642;2022-09-13T07:19:30;12.75;;;9.48;;
20393;SDS011;10356;50.544;9.642;2022-09-13T07:21:56;15.05;;;9.45;;
20393;SDS011;10356;50.544;9.642;2022-09-13T07:24:23;10.43;;;8.63;;
20393;SDS011;10356;50.544;9.642;2022-09-13T07:26:50;13.77;;;8.75;;
20393;SDS011;10356;50.544;9.642;2022-09-13T07:29:17;10.18;;;8.73;;
20393;SDS011;10356;50.544;9.642;2022-09-13T07:31:48;11.63;;;9.05;;
20393;SDS011;10356;50.544;9.642;2022-09-13T07:34:17;13.05;;;9.57;;
20393;SDS011;10356;50.544;9.642;2022-09-13T07:36:45;10.00;;;8.90;;
20393;SDS011;10356;50.544;9.642;2022-09-13T07:39:13;12.25;;;8.93;;
20393;SDS011;10356;50.544;9.642;2022-09-13T07:41:40;10.98;;;8.98;;
20393;SDS011;10356;50.544;9.642;2022-09-13T07:44:08;12.93;;;8.73;;
20393;SDS011;10356;50.544;9.642;2022-09-13T07:46:35;13.70;;;8.75;;
20393;SDS011;10356;50.544;9.642;2022-09-13T07:49:05;10.60;;;8.52;;
20393;SDS011;10356;50.544;9.642;2022-09-13T07:51:32;12.98;;;8.48;;
20393;SDS011;10356;50.544;9.642;2022-09-13T07:54:00;12.52;;;8.98;;
20393;SDS011;10356;50.544;9.642;2022-09-13T07:56:29;12.63;;;8.88;;
20393;SDS011;10356;50.544;9.642;2022-09-13T07:58:57;11.52;;;8.65;;
20393;SDS011;10356;50.544;9.642;2022-09-13T08:01:25;11.30;;;8.90;;
20393;SDS011;10356;50.544;9.642;2022-09-13T08:03:53;9.13;;;8.23;;
20393;SDS011;10356;50.544;9.642;2022-09-13T08:06:23;10.68;;;8.73;;
20393;SDS011;10356;50.544;9.642;2022-09-13T08:08:51;10.88;;;7.72;;
20393;SDS011;10356;50.544;9.642;2022-09-13T08:11:18;12.13;;;8.48;;
20393;SDS011;10356;50.544;9.642;2022-09-13T08:13:46;12.23;;;8.25;;
20393;SDS011;10356;50.544;9.642;2022-09-13T08:16:14;8.60;;;7.75;;
20393;SDS011;10356;50.544;9.642;2022-09-13T08:18:42;10.57;;;8.13;;
20393;SDS011;10356;50.544;9.642;2022-09-13T08:21:10;12.95;;;8.15;;
20393;SDS011;10356;50.544;9.642;2022-09-13T08:23:39;9.65;;;7.85;;
20393;SDS011;10356;50.544;9.642;2022-09-13T08:26:06;10.60;;;8.43;;
20393;SDS011;10356;50.544;9.642;2022-09-13T08:28:33;9.30;;;7.97;;
20393;SDS011;10356;50.544;9.642;2022-09-13T08:31:04;11.40;;;8.18;;
20393;SDS011;10356;50.544;9.642;2022-09-13T08:33:31;10.48;;;8.27;;
20393;SDS011;10356;50.544;9.642;2022-09-13T08:35:58;9.10;;;7.95;;
20393;SDS011;10356;50.544;9.642;2022-09-13T08:38:24;13.73;;;7.53;;
20393;SDS011;10356;50.544;9.642;2022-09-13T08:40:54;8.30;;;7.43;;
20393;SDS011;10356;50.544;9.642;2022-09-13T08:43:25;11.80;;;8.38;;
20393;SDS011;10356;50.544;9.642;2022-09-13T08:46:01;9.18;;;7.53;;
20393;SDS011;10356;50.544;9.642;2022-09-13T08:48:46;11.55;;;6.97;;
20393;SDS011;10356;50.544;9.642;2022-09-13T08:51:21;7.90;;;5.82;;
20393;SDS011;10356;50.544;9.642;2022-09-13T08:53:53;8.02;;;5.93;;
20393;SDS011;10356;50.544;9.642;2022-09-13T08:56:23;6.10;;;5.05;;
20393;SDS011;10356;50.544;9.642;2022-09-13T08:58:58;5.80;;;4.95;;
20393;SDS011;10356;50.544;9.642;2022-09-13T09:01:37;5.63;;;5.03;;
20393;SDS011;10356;50.544;9.642;2022-09-13T09:04:15;4.90;;;4.47;;
20393;SDS011;10356;50.544;9.642;2022-09-13T09:06:59;5.00;;;4.57;;
20393;SDS011;10356;50.544;9.642;2022-09-13T09:09:29;6.30;;;4.65;;
20393;SDS011;10356;50.544;9.642;2022-09-13T09:12:02;6.25;;;4.63;;
20393;SDS011;10356;50.544;9.642;2022-09-13T09:14:40;5.38;;;4.85;;
20393;SDS011;10356;50.544;9.642;2022-09-13T09:17:11;5.07;;;4.32;;
20393;SDS011;10356;50.544;9.642;2022-09-13T09:19:43;7.88;;;4.68;;
20393;SDS011;10356;50.544;9.642;2022-09-13T09:22:16;6.95;;;4.22;;
20393;SDS011;10356;50.544;9.642;2022-09-13T09:24:47;6.80;;;4.55;;
20393;SDS011;10356;50.544;9.642;2022-09-13T09:27:18;4.72;;;4.30;;
20393;SDS011;10356;50.544;9.642;2022-09-13T09:29:46;5.25;;;4.40;;
20393;SDS011;10356;50.544;9.642;2022-09-13T09:32:17;4.35;;;3.90;;
20393;SDS011;10356;50.544;9.642;2022-09-13T09:35:07;7.22;;;4.63;;
20393;SDS011;10356;50.544;9.642;2022-09-13T09:37:41;5.30;;;4.45;;
20393;SDS011;10356;50.544;9.642;2022-09-13T09:40:15;6.72;;;4.22;;
20393;SDS011;10356;50.544;9.642;2022-09-13T09:42:45;6.32;;;4.35;;
20393;SDS011;10356;50.544;9.642;2022-09-13T09:45:18;5.07;;;4.18;;
20393;SDS011;10356;50.544;9.642;2022-09-13T09:47:50;7.22;;;4.18;;
20393;SDS011;10356;50.544;9.642;2022-09-13T09:50:19;6.00;;;4.13;;
20393;SDS011;10356;50.544;9.642;2022-09-13T09:52:50;7.45;;;4.25;;
20393;SDS011;10356;50.544;9.642;2022-09-13T09:55:25;6.13;;;4.30;;
20393;SDS011;10356;50.544;9.642;2022-09-13T09:57:56;5.47;;;3.95;;
20393;SDS011;10356;50.544;9.642;2022-09-13T10:00:25;4.22;;;3.83;;
20393;SDS011;10356;50.544;9.642;2022-09-13T10:02:55;4.32;;;3.58;;
20393;SDS011;10356;50.544;9.642;2022-09-13T10:05:25;4.05;;;3.42;;
20393;SDS011;10356;50.544;9.642;2022-09-13T10:07:53;9.23;;;3.75;;
20393;SDS011;10356;50.544;9.642;2022-09-13T10:10:23;5.05;;;3.10;;
20393;SDS011;10356;50.544;9.642;2022-09-13T10:12:52;3.88;;;2.97;;
20393;SDS011;10356;50.544;9.642;2022-09-13T10:15:23;3.47;;;3.17;;
20393;SDS011;10356;50.544;9.642;2022-09-13T10:18:00;3.47;;;3.20;;
20393;SDS011;10356;50.544;9.642;2022-09-13T10:20:31;3.80;;;3.05;;
20393;SDS011;10356;50.544;9.642;2022-09-13T10:23:14;6.43;;;3.30;;
20393;SDS011;10356;50.544;9.642;2022-09-13T10:25:45;3.75;;;3.08;;
20393;SDS011;10356;50.544;9.642;2022-09-13T10:28:23;4.40;;;3.65;;
20393;SDS011;10356;50.544;9.642;2022-09-13T10:30:53;3.58;;;3.28;;
20393;SDS011;10356;50.544;9.642;2022-09-13T10:33:24;3.17;;;2.90;;
20393;SDS011;10356;50.544;9.642;2022-09-13T10:35:54;4.53;;;3.47;;
20393;SDS011;10356;50.544;9.642;2022-09-13T10:38:24;3.30;;;3.00;;
20393;SDS011;10356;50.544;9.642;2022-09-13T10:40:54;3.92;;;3.60;;
20393;SDS011;10356;50.544;9.642;2022-09-13T10:43:22;4.47;;;3.47;;
20393;SDS011;10356;50.544;9.642;2022-09-13T10:45:53;3.60;;;3.30;;
20393;SDS011;10356;50.544;9.642;2022-09-13T10:48:21;4.00;;;3.60;;
20393;SDS011;10356;50.544;9.642;2022-09-13T10:51:04;4.30;;;3.50;;
20393;SDS011;10356;50.544;9.642;2022-09-13T10:53:34;5.68;;;3.50;;
20393;SDS011;10356;50.544;9.642;2022-09-13T10:56:02;4.18;;;3.25;;
20393;SDS011;10356;50.544;9.642;2022-09-13T10:58:30;4.10;;;3.10;;
20393;SDS011;10356;50.544;9.642;2022-09-13T11:01:02;3.83;;;3.20;;
20393;SDS011;10356;50.544;9.642;2022-09-13T11:03:52;3.53;;;3.22;;
20393;SDS011;10356;50.544;9.642;2022-09-13T11:06:29;4.68;;;3.13;;
20393;SDS011;10356;50.544;9.642;2022-09-13T11:09:03;3.72;;;3.25;;
20393;SDS011;10356;50.544;9.642;2022-09-13T11:11:39;3.80;;;3.20;;
20393;SDS011;10356;50.544;9.642;2022-09-13T11:14:16;3.53;;;2.97;;
20393;SDS011;10356;50.544;9.642;2022-09-13T11:17:04;5.47;;;3.05;;
20393;SDS011;10356;50.544;9.642;2022-09-13T11:19:47;4.80;;;3.20;;
20393;SDS011;10356;50.544;9.642;2022-09-13T11:22:35;3.83;;;3.53;;
20393;SDS011;10356;50.544;9.642;2022-09-13T11:25:29;3.63;;;3.30;;
20393;SDS011;10356;50.544;9.642;2022-09-13T11:28:10;4.05;;;3.35;;
20393;SDS011;10356;50.544;9.642;2022-09-13T11:30:47;5.72;;;3.00;;
20393;SDS011;10356;50.544;9.642;2022-09-13T11:33:34;3.10;;;2.80;;
20393;SDS011;10356;50.544;9.642;2022-09-13T11:39:07;5.05;;;2.95;;
20393;SDS011;10356;50.544;9.642;2022-09-13T11:41:45;6.05;;;2.97;;
20393;SDS011;10356;50.544;9.642;2022-09-13T11:44:27;3.65;;;3.13;;
20393;SDS011;10356;50.544;9.642;2022-09-13T11:47:07;3.53;;;3.13;;
20393;SDS011;10356;50.544;9.642;2022-09-13T11:49:50;3.85;;;3.42;;
20393;SDS011;10356;50.544;9.642;2022-09-13T11:52:32;3.90;;;3.03;;
20393;SDS011;10356;50.544;9.642;2022-09-13T11:55:12;4.53;;;3.22;;
20393;SDS011;10356;50.544;9.642;2022-09-13T11:57:43;5.13;;;3.40;;
20393;SDS011;10356;50.544;9.642;2022-09-13T12:00:15;5.05;;;3.47;;
20393;SDS011;10356;50.544;9.642;2022-09-13T12:02:46;3.45;;;3.15;;
20393;SDS011;10356;50.544;9.642;2022-09-13T12:05:19;3.10;;;2.65;;
20393;SDS011;10356;50.544;9.642;2022-09-13T12:07:48;5.85;;;2.72;;
20393;SDS011;10356;50.544;9.642;2022-09-13T12:10:20;4.82;;;3.13;;
20393;SDS011;10356;50.544;9.642;2022-09-13T12:12:50;4.50;;;2.95;;
20393;SDS011;10356;50.544;9.642;2022-09-13T12:15:20;5.70;;;2.00;;
20393;SDS011;10356;50.544;9.642;2022-09-13T12:17:55;5.13;;;1.60;;
20393;SDS011;10356;50.544;9.642;2022-09-13T12:20:30;2.42;;;1.33;;
20393;SDS011;10356;50.544;9.642;2022-09-13T12:23:00;3.17;;;1.60;;
20393;SDS011;10356;50.544;9.642;2022-09-13T12:25:33;3.47;;;1.80;;
20393;SDS011;10356;50.544;9.642;2022-09-13T12:28:05;4.60;;;1.60;;
20393;SDS011;10356;50.544;9.642;2022-09-13T12:30:40;3.00;;;1.40;;
20393;SDS011;10356;50.544;9.642;2022-09-13T12:33:12;2.78;;;1.50;;
20393;SDS011;10356;50.544;9.642;2022-09-13T12:35:44;4.05;;;1.40;;
20393;SDS011;10356;50.544;9.642;2022-09-13T12:38:26;1.30;;;1.20;;
20393;SDS011;10356;50.544;9.642;2022-09-13T12:41:25;2.20;;;1.17;;
20393;SDS011;10356;50.544;9.642;2022-09-13T12:44:11;2.35;;;1.50;;
20393;SDS011;10356;50.544;9.642;2022-09-13T12:50:04;2.13;;;1.50;;
20393;SDS011;10356;50.544;9.642;2022-09-13T12:52:44;1.52;;;1.40;;
20393;SDS011;10356;50.544;9.642;2022-09-13T12:55:26;1.55;;;1.30;;
20393;SDS011;10356;50.544;9.642;2022-09-13T12:58:16;3.53;;;1.38;;
20393;SDS011;10356;50.544;9.642;2022-09-13T13:01:01;5.40;;;1.90;;
20393;SDS011;10356;50.544;9.642;2022-09-13T13:03:34;3.38;;;1.80;;
20393;SDS011;10356;50.544;9.642;2022-09-13T13:06:07;5.40;;;2.10;;
20393;SDS011;10356;50.544;9.642;2022-09-13T13:08:49;2.53;;;1.65;;
20393;SDS011;10356;50.544;9.642;2022-09-13T13:11:19;2.50;;;1.60;;
20393;SDS011;10356;50.544;9.642;2022-09-13T13:13:52;2.47;;;1.60;;
20393;SDS011;10356;50.544;9.642;2022-09-13T13:16:23;3.20;;;1.63;;
20393;SDS011;10356;50.544;9.642;2022-09-13T13:18:52;1.50;;;1.40;;
20393;SDS011;10356;50.544;9.642;2022-09-13T13:21:24;3.08;;;1.27;;
20393;SDS011;10356;50.544;9.642;2022-09-13T13:26:59;2.80;;;1.60;;
20393;SDS011;10356;50.544;9.642;2022-09-13T13:29:26;3.42;;;1.40;;
20393;SDS011;10356;50.544;9.642;2022-09-13T13:32:10;3.17;;;1.80;;
20393;SDS011;10356;50.544;9.642;2022-09-13T13:34:40;1.98;;;1.85;;
20393;SDS011;10356;50.544;9.642;2022-09-13T13:37:25;2.88;;;1.40;;
20393;SDS011;10356;50.544;9.642;2022-09-13T13:45:55;2.42;;;1.48;;
20393;SDS011;10356;50.544;9.642;2022-09-13T13:48:38;3.55;;;1.67;;
20393;SDS011;10356;50.544;9.642;2022-09-13T13:51:16;2.47;;;1.70;;
20393;SDS011;10356;50.544;9.642;2022-09-13T13:53:49;2.15;;;1.65;;
20393;SDS011;10356;50.544;9.642;2022-09-13T13:56:23;3.15;;;1.88;;
20393;SDS011;10356;50.544;9.642;2022-09-13T13:58:55;2.13;;;1.80;;
20393;SDS011;10356;50.544;9.642;2022-09-13T14:01:29;3.13;;;1.75;;
20393;SDS011;10356;50.544;9.642;2022-09-13T14:04:03;4.68;;;2.00;;
20393;SDS011;10356;50.544;9.642;2022-09-13T14:06:47;5.70;;;1.63;;
20393;SDS011;10356;50.544;9.642;2022-09-13T14:09:26;2.03;;;1.60;;
20393;SDS011;10356;50.544;9.642;2022-09-13T14:12:05;3.17;;;1.70;;
20393;SDS011;10356;50.544;9.642;2022-09-13T14:14:48;1.70;;;1.50;;
20393;SDS011;10356;50.544;9.642;2022-09-13T14:17:33;2.55;;;1.65;;
20393;SDS011;10356;50.544;9.642;2022-09-13T14:20:20;4.10;;;1.77;;
20393;SDS011;10356;50.544;9.642;2022-09-13T14:22:47;1.80;;;1.40;;
20393;SDS011;10356;50.544;9.642;2022-09-13T14:25:15;3.88;;;1.70;;
20393;SDS011;10356;50.544;9.642;2022-09-13T14:27:49;2.50;;;1.63;;
20393;SDS011;10356;50.544;9.642;2022-09-13T14:30:28;1.90;;;1.40;;
20393;SDS011;10356;50.544;9.642;2022-09-13T14:32:57;2.88;;;1.60;;
20393;SDS011;10356;50.544;9.642;2022-09-13T14:35:26;3.90;;;1.38;;
20393;SDS011;10356;50.544;9.642;2022-09-13T14:37:54;2.90;;;1.63;;
20393;SDS011;10356;50.544;9.642;2022-09-13T14:40:22;2.10;;;1.60;;
20393;SDS011;10356;50.544;9.642;2022-09-13T14:42:51;1.35;;;1.17;;
20393;SDS011;10356;50.544;9.642;2022-09-13T14:45:19;2.10;;;1.55;;
20393;SDS011;10356;50.544;9.642;2022-09-13T14:47:51;2.75;;;1.50;;
20393;SDS011;10356;50.544;9.642;2022-09-13T14:50:23;3.45;;;1.65;;
20393;SDS011;10356;50.544;9.642;2022-09-13T14:52:52;3.38;;;1.48;;
20393;SDS011;10356;50.544;9.642;2022-09-13T14:55:23;3.90;;;1.70;;
20393;SDS011;10356;50.544;9.642;2022-09-13T14:57:54;2.28;;;1.73;;
20393;SDS011;10356;50.544;9.642;2022-09-13T15:00:26;2.17;;;1.75;;
20393;SDS011;10356;50.544;9.642;2022-09-13T15:02:55;1.70;;;1.30;;
20393;SDS011;10356;50.544;9.642;2022-09-13T15:05:24;4.68;;;1.85;;
20393;SDS011;10356;50.544;9.642;2022-09-13T15:07:52;2.42;;;1.45;;
20393;SDS011;10356;50.544;9.642;2022-09-13T15:10:21;3.28;;;1.40;;
20393;SDS011;10356;50.544;9.642;2022-09-13T15:12:51;2.15;;;1.50;;
20393;SDS011;10356;50.544;9.642;2022-09-13T15:15:24;1.63;;;1.42;;
20393;SDS011;10356;50.544;9.642;2022-09-13T15:17:59;1.52;;;1.40;;
20393;SDS011;10356;50.544;9.642;2022-09-13T15:20:27;3.50;;;1.25;;
20393;SDS011;10356;50.544;9.642;2022-09-13T15:22:55;1.40;;;1.20;;
20393;SDS011;10356;50.544;9.642;2022-09-13T15:25:23;1.73;;;1.20;;